Time;durP1;ratioP1;P1;durP2;ratioP2;P2;SDS_P1;SDS_P2;PMS_P1;PMS_P2;Temp;Humidity;BMP_temperature;BMP_pressure;BME280_temperature;BME280_humidity;BME280_pressure;Samples;Min_cycle;Max_cycle;Signal;HPM_P1;HPM_P2
2021/07/24 00:01:51;;;;;;;11.23;5.28;;;;;;;;;;4984052;28;20050;-54
2021/07/24 00:04:18;;;;;;;11.27;5.28;;;;;;;;;;4981571;28;20034;-54
2021/07/24 00:06:46;;;;;;;10.80;5.43;;;;;;;;;;4984218;28;20046;-54
2021/07/24 00:09:13;;;;;;;10.10;4.80;;;;;;;;;;4980121;28;20042;-54
2021/07/24 00:11:39;;;;;;;26.65;6.45;;;;;;;;;;5002400;28;20049;-54
2021/07/24 00:14:06;;;;;;;14.40;5.32;;;;;;;;;;4988348;28;20034;-53
2021/07/24 00:16:34;;;;;;;9.60;4.78;;;;;;;;;;4984143;28;20034;-54
2021/07/24 00:19:01;;;;;;;15.90;5.72;;;;;;;;;;4981480;28;20141;-54
2021/07/24 00:21:27;;;;;;;16.08;5.72;;;;;;;;;;4982641;28;20046;-55
2021/07/24 00:23:55;;;;;;;10.80;5.38;;;;;;;;;;4980358;28;20043;-51
2021/07/24 00:26:22;;;;;;;10.43;4.93;;;;;;;;;;4982947;28;20039;-54
2021/07/24 00:28:49;;;;;;;10.70;5.07;;;;;;;;;;4979425;28;20363;-55
2021/07/24 00:31:16;;;;;;;12.27;5.65;;;;;;;;;;4985974;28;20044;-53
2021/07/24 00:33:42;;;;;;;12.80;5.28;;;;;;;;;;4999728;28;20049;-56
2021/07/24 00:36:09;;;;;;;12.13;5.18;;;;;;;;;;4995944;28;20165;-54
2021/07/24 00:38:35;;;;;;;13.13;5.40;;;;;;;;;;5001316;28;20042;-56
2021/07/24 00:41:08;;;;;;;12.10;4.97;;;;;;;;;;4997414;28;20049;-56
2021/07/24 00:43:36;;;;;;;12.18;5.72;;;;;;;;;;5002091;28;20038;-55
2021/07/24 00:46:08;;;;;;;13.88;5.18;;;;;;;;;;5015195;28;20046;-54
2021/07/24 00:48:36;;;;;;;13.82;5.32;;;;;;;;;;5021685;28;20057;-56
2021/07/24 00:51:03;;;;;;;10.35;5.43;;;;;;;;;;5020717;28;20046;-52
2021/07/24 00:53:35;;;;;;;14.25;6.20;;;;;;;;;;5025965;28;20045;-54
2021/07/24 00:56:03;;;;;;;10.68;5.10;;;;;;;;;;5019221;28;20037;-50
2021/07/24 00:58:31;;;;;;;13.18;6.05;;;;;;;;;;5025153;28;20041;-55
2021/07/24 01:00:58;;;;;;;14.07;5.70;;;;;;;;;;5010116;28;20072;-52
2021/07/24 01:03:24;;;;;;;12.43;5.30;;;;;;;;;;4985857;28;20038;-51
2021/07/24 01:05:52;;;;;;;14.10;5.47;;;;;;;;;;5021981;28;20054;-55
2021/07/24 01:08:19;;;;;;;14.45;5.40;;;;;;;;;;5004888;28;20054;-54
2021/07/24 01:10:46;;;;;;;14.02;6.05;;;;;;;;;;5002672;28;20046;-56
2021/07/24 01:13:16;;;;;;;12.95;5.82;;;;;;;;;;5023283;28;20049;-56
2021/07/24 01:15:43;;;;;;;13.18;5.75;;;;;;;;;;5019347;28;20038;-54
2021/07/24 01:18:10;;;;;;;12.60;5.90;;;;;;;;;;5005457;28;20037;-53
2021/07/24 01:20:37;;;;;;;14.85;5.88;;;;;;;;;;5000644;28;20057;-55
2021/07/24 01:23:05;;;;;;;14.15;5.65;;;;;;;;;;5005413;28;20040;-55
2021/07/24 01:25:32;;;;;;;11.90;4.93;;;;;;;;;;5005088;28;20050;-54
2021/07/24 01:27:59;;;;;;;13.02;5.78;;;;;;;;;;5021496;28;20147;-54
2021/07/24 01:30:26;;;;;;;13.38;6.18;;;;;;;;;;5024920;28;20038;-55
2021/07/24 01:32:52;;;;;;;12.48;5.43;;;;;;;;;;5019568;28;20126;-56
2021/07/24 01:35:19;;;;;;;14.10;5.68;;;;;;;;;;5024269;28;20060;-56
2021/07/24 01:37:45;;;;;;;14.07;5.78;;;;;;;;;;5020066;28;20073;-56
2021/07/24 01:40:14;;;;;;;15.98;5.57;;;;;;;;;;5023781;28;20029;-55
2021/07/24 01:42:40;;;;;;;;;;;;;;;;;;5021942;28;20099;-55
2021/07/24 01:45:07;;;;;;;13.15;5.05;;;;;;;;;;5016625;28;19921;-55
2021/07/24 01:47:34;;;;;;;12.48;5.50;;;;;;;;;;5008873;28;20039;-55
2021/07/24 01:52:48;;;;;;;11.88;5.50;;;;;;;;;;4990290;28;20045;-53
2021/07/24 01:55:18;;;;;;;13.88;6.10;;;;;;;;;;5002746;28;20057;-56
2021/07/24 01:57:47;;;;;;;12.13;5.60;;;;;;;;;;4999757;28;20053;-54
2021/07/24 02:00:15;;;;;;;13.13;5.85;;;;;;;;;;5004095;28;20042;-53
2021/07/24 02:02:42;;;;;;;15.30;5.88;;;;;;;;;;4999884;28;20045;-54
2021/07/24 02:05:11;;;;;;;13.98;5.93;;;;;;;;;;5005491;28;20057;-53
2021/07/24 02:07:47;;;;;;;16.77;6.15;;;;;;;;;;5001191;28;20135;-54
2021/07/24 02:10:13;;;;;;;14.82;6.10;;;;;;;;;;5002699;28;20172;-54
2021/07/24 02:12:41;;;;;;;12.77;5.78;;;;;;;;;;5000292;28;20042;-53
2021/07/24 02:15:08;;;;;;;13.02;5.82;;;;;;;;;;5005404;28;20119;-54
2021/07/24 02:17:37;;;;;;;16.27;6.03;;;;;;;;;;5004135;28;20035;-54
2021/07/24 02:20:05;;;;;;;13.52;5.90;;;;;;;;;;5001092;28;20053;-55
2021/07/24 02:22:31;;;;;;;14.85;5.93;;;;;;;;;;5004994;28;20148;-54
2021/07/24 02:24:58;;;;;;;12.02;5.78;;;;;;;;;;5014111;28;20038;-51
2021/07/24 02:27:25;;;;;;;13.27;5.93;;;;;;;;;;4984862;28;20049;-54
2021/07/24 02:29:52;;;;;;;12.07;5.32;;;;;;;;;;4994348;28;20053;-51
2021/07/24 02:32:19;;;;;;;10.80;5.27;;;;;;;;;;5002761;28;20123;-52
2021/07/24 02:34:46;;;;;;;14.82;5.88;;;;;;;;;;5003461;28;20287;-50
2021/07/24 02:37:12;;;;;;;12.85;5.45;;;;;;;;;;5005569;28;20050;-54
2021/07/24 02:39:38;;;;;;;13.73;5.57;;;;;;;;;;5003709;28;20038;-54
2021/07/24 02:42:05;;;;;;;14.85;5.32;;;;;;;;;;5004065;28;20053;-54
2021/07/24 02:44:32;;;;;;;13.48;6.25;;;;;;;;;;4991339;28;20038;-56
2021/07/24 02:47:01;;;;;;;13.10;5.82;;;;;;;;;;5020066;28;20034;-53
2021/07/24 02:49:38;;;;;;;14.98;5.65;;;;;;;;;;5001932;28;20053;-55
2021/07/24 02:52:05;;;;;;;14.10;5.90;;;;;;;;;;5010846;28;20038;-53
2021/07/24 02:54:31;;;;;;;17.80;6.72;;;;;;;;;;5020435;28;20037;-54
2021/07/24 02:56:58;;;;;;;13.98;5.68;;;;;;;;;;5021598;28;20042;-53
2021/07/24 02:59:25;;;;;;;12.80;6.07;;;;;;;;;;5019727;28;20037;-56
2021/07/24 03:01:51;;;;;;;13.98;6.20;;;;;;;;;;5013018;28;20038;-53
2021/07/24 03:04:19;;;;;;;14.15;6.40;;;;;;;;;;5021165;28;20029;-53
2021/07/24 03:06:48;;;;;;;12.77;5.77;;;;;;;;;;5018017;28;20034;-55
2021/07/24 03:09:15;;;;;;;16.48;6.55;;;;;;;;;;5021836;28;20034;-54
2021/07/24 03:11:41;;;;;;;15.95;6.60;;;;;;;;;;5015629;28;20053;-52
2021/07/24 03:14:08;;;;;;;12.00;5.93;;;;;;;;;;5021985;28;20065;-52
2021/07/24 03:16:34;;;;;;;14.70;6.20;;;;;;;;;;5019640;28;20037;-51
2021/07/24 03:19:01;;;;;;;13.93;5.95;;;;;;;;;;5024752;28;20041;-53
2021/07/24 03:21:28;;;;;;;14.65;6.22;;;;;;;;;;5020167;28;20033;-54
2021/07/24 03:23:55;;;;;;;20.03;6.53;;;;;;;;;;5022598;28;20119;-56
2021/07/24 03:26:22;;;;;;;11.20;5.40;;;;;;;;;;5019216;28;20061;-56
2021/07/24 03:28:48;;;;;;;12.77;5.72;;;;;;;;;;5023382;28;20042;-53
2021/07/24 03:31:15;;;;;;;14.00;5.90;;;;;;;;;;5017764;28;20033;-55
2021/07/24 03:33:41;;;;;;;15.85;6.03;;;;;;;;;;5024057;28;20037;-54
2021/07/24 03:36:08;;;;;;;14.52;5.88;;;;;;;;;;5019116;28;20056;-54
2021/07/24 03:38:36;;;;;;;14.77;6.20;;;;;;;;;;5017085;28;20045;-55
2021/07/24 03:41:03;;;;;;;16.00;6.23;;;;;;;;;;4999390;28;20112;-53
2021/07/24 03:43:29;;;;;;;15.75;6.13;;;;;;;;;;5009986;28;20287;-54
2021/07/24 03:45:56;;;;;;;14.20;5.40;;;;;;;;;;5023229;28;20042;-51
2021/07/24 03:48:22;;;;;;;12.45;6.00;;;;;;;;;;5018493;28;20034;-51
2021/07/24 03:50:48;;;;;;;13.93;5.88;;;;;;;;;;5021282;28;20052;-53
2021/07/24 03:53:15;;;;;;;13.88;6.13;;;;;;;;;;5019476;28;20319;-50
2021/07/24 03:55:43;;;;;;;14.27;5.25;;;;;;;;;;5021514;28;20045;-55
2021/07/24 03:58:09;;;;;;;15.05;6.05;;;;;;;;;;5019275;28;20149;-53
2021/07/24 04:00:40;;;;;;;15.77;6.03;;;;;;;;;;5022673;28;20041;-54
2021/07/24 04:03:06;;;;;;;14.75;6.00;;;;;;;;;;5020583;28;20127;-53
2021/07/24 04:05:34;;;;;;;15.20;6.25;;;;;;;;;;5024601;28;20038;-52
2021/07/24 04:08:01;;;;;;;15.35;6.15;;;;;;;;;;5020459;28;20052;-51
2021/07/24 04:10:28;;;;;;;11.88;6.13;;;;;;;;;;5023465;28;20131;-52
2021/07/24 04:12:56;;;;;;;14.45;6.38;;;;;;;;;;5018604;28;20033;-54
2021/07/24 04:15:22;;;;;;;12.87;5.10;;;;;;;;;;5022210;28;20029;-52
2021/07/24 04:17:50;;;;;;;16.38;6.85;;;;;;;;;;5019167;28;20380;-54
2021/07/24 04:20:21;;;;;;;13.93;6.23;;;;;;;;;;5023398;28;20049;-53
2021/07/24 04:22:47;;;;;;;11.60;5.43;;;;;;;;;;5017956;28;20200;-55
2021/07/24 04:25:13;;;;;;;16.77;6.32;;;;;;;;;;5020639;28;20049;-52
2021/07/24 04:27:41;;;;;;;12.63;5.55;;;;;;;;;;5020652;28;20052;-50
2021/07/24 04:30:09;;;;;;;13.23;5.97;;;;;;;;;;5020304;28;20081;-50
2021/07/24 04:32:36;;;;;;;12.38;5.53;;;;;;;;;;5021253;28;20049;-54
2021/07/24 04:35:05;;;;;;;12.50;5.57;;;;;;;;;;5002449;28;20044;-52
2021/07/24 04:37:31;;;;;;;15.95;6.80;;;;;;;;;;5020656;28;20053;-52
2021/07/24 04:39:58;;;;;;;15.02;5.70;;;;;;;;;;5018217;28;20192;-54
2021/07/24 04:42:24;;;;;;;12.77;6.07;;;;;;;;;;5021143;28;20499;-52
2021/07/24 04:44:51;;;;;;;15.77;6.30;;;;;;;;;;5019074;28;20041;-53
2021/07/24 04:47:19;;;;;;;17.38;6.15;;;;;;;;;;5021925;28;20119;-54
2021/07/24 04:49:48;;;;;;;14.93;5.53;;;;;;;;;;5016586;28;20041;-53
2021/07/24 04:52:14;;;;;;;15.90;5.72;;;;;;;;;;5020437;28;20033;-51
2021/07/24 04:54:42;;;;;;;19.08;6.28;;;;;;;;;;5017613;28;20049;-53
2021/07/24 04:57:09;;;;;;;15.75;5.88;;;;;;;;;;5021516;28;20101;-50
2021/07/24 04:59:36;;;;;;;14.82;6.25;;;;;;;;;;5019516;28;20115;-49
2021/07/24 05:02:05;;;;;;;16.20;6.15;;;;;;;;;;5011379;28;20048;-53
2021/07/24 05:04:33;;;;;;;12.73;6.10;;;;;;;;;;5018708;28;20049;-54
2021/07/24 05:07:00;;;;;;;10.75;5.78;;;;;;;;;;5022815;28;20049;-52
2021/07/24 05:09:26;;;;;;;12.88;5.72;;;;;;;;;;5018073;28;20119;-53
2021/07/24 05:11:53;;;;;;;15.43;5.68;;;;;;;;;;5020791;28;20042;-52
2021/07/24 05:14:19;;;;;;;17.58;6.05;;;;;;;;;;5019818;28;20041;-52
2021/07/24 05:16:46;;;;;;;11.52;5.32;;;;;;;;;;5020627;28;20049;-55
2021/07/24 05:19:12;;;;;;;12.27;5.15;;;;;;;;;;5020699;28;20058;-53
2021/07/24 05:21:40;;;;;;;11.93;5.40;;;;;;;;;;5019800;28;20053;-54
2021/07/24 05:24:06;;;;;;;12.38;5.35;;;;;;;;;;5023049;28;20045;-52
2021/07/24 05:26:33;;;;;;;16.42;5.85;;;;;;;;;;5016196;28;20049;-54
2021/07/24 05:28:59;;;;;;;15.20;5.97;;;;;;;;;;5021827;28;20038;-52
2021/07/24 05:31:28;;;;;;;14.60;5.65;;;;;;;;;;5017200;28;20050;-52
2021/07/24 05:33:57;;;;;;;11.68;5.53;;;;;;;;;;5020788;28;20041;-52
2021/07/24 05:36:24;;;;;;;11.50;5.20;;;;;;;;;;5016345;28;20030;-54
2021/07/24 05:38:52;;;;;;;12.52;5.75;;;;;;;;;;5024876;28;20053;-52
2021/07/24 05:41:18;;;;;;;12.80;5.37;;;;;;;;;;5020165;28;20160;-51
2021/07/24 05:43:45;;;;;;;17.92;5.63;;;;;;;;;;5025638;28;20086;-51
2021/07/24 05:46:11;;;;;;;15.68;6.00;;;;;;;;;;5021614;28;20124;-54
2021/07/24 05:48:38;;;;;;;15.77;5.43;;;;;;;;;;5023711;28;20101;-53
2021/07/24 05:51:08;;;;;;;15.70;5.65;;;;;;;;;;5019452;28;20050;-55
2021/07/24 05:53:34;;;;;;;12.32;5.65;;;;;;;;;;5024193;28;20045;-54
2021/07/24 05:56:02;;;;;;;13.95;5.78;;;;;;;;;;5022859;28;20042;-52
2021/07/24 05:58:30;;;;;;;9.93;5.00;;;;;;;;;;5020344;28;20046;-51
2021/07/24 06:00:57;;;;;;;11.45;5.45;;;;;;;;;;5023868;28;20042;-54
2021/07/24 06:03:23;;;;;;;13.27;5.72;;;;;;;;;;5021738;28;20046;-52
2021/07/24 06:05:49;;;;;;;9.80;4.75;;;;;;;;;;5024633;28;20168;-52
2021/07/24 06:08:16;;;;;;;12.00;5.20;;;;;;;;;;5019959;28;20045;-55
2021/07/24 06:10:43;;;;;;;12.02;5.32;;;;;;;;;;5024874;28;20046;-52
2021/07/24 06:13:11;;;;;;;11.65;5.35;;;;;;;;;;5017962;28;20064;-52
2021/07/24 06:15:41;;;;;;;12.68;5.15;;;;;;;;;;5023467;28;20041;-53
2021/07/24 06:18:08;;;;;;;11.25;4.97;;;;;;;;;;5019191;28;20107;-56
2021/07/24 06:20:37;;;;;;;10.32;4.70;;;;;;;;;;5023330;28;20051;-54
2021/07/24 06:23:03;;;;;;;;;;;;;;;;;;5019865;28;20037;-52
2021/07/24 06:25:29;;;;;;;10.75;4.93;;;;;;;;;;5022220;28;19929;-54
2021/07/24 06:27:56;;;;;;;11.15;4.72;;;;;;;;;;5019437;28;20037;-52
2021/07/24 06:30:24;;;;;;;12.32;4.82;;;;;;;;;;5023271;28;20164;-55
2021/07/24 06:32:50;;;;;;;10.90;4.83;;;;;;;;;;5035258;28;20045;-54
2021/07/24 06:35:17;;;;;;;15.15;4.65;;;;;;;;;;5024314;28;20042;-55
2021/07/24 06:37:43;;;;;;;10.75;4.75;;;;;;;;;;5021942;28;20119;-53
2021/07/24 06:40:10;;;;;;;13.25;5.60;;;;;;;;;;5038304;28;20054;-54
2021/07/24 06:42:37;;;;;;;13.27;5.28;;;;;;;;;;5024325;28;20123;-54
2021/07/24 06:45:04;;;;;;;10.10;4.68;;;;;;;;;;5019901;28;20038;-52
2021/07/24 06:47:34;;;;;;;12.63;5.07;;;;;;;;;;5024528;28;20135;-55
2021/07/24 06:50:00;;;;;;;12.10;5.63;;;;;;;;;;5035449;28;20099;-54
2021/07/24 06:52:27;;;;;;;11.90;5.13;;;;;;;;;;5023362;28;20041;-54
2021/07/24 06:54:53;;;;;;;10.63;4.80;;;;;;;;;;5017873;28;20037;-55
2021/07/24 06:57:20;;;;;;;12.15;5.03;;;;;;;;;;5022662;28;20061;-56
2021/07/24 06:59:46;;;;;;;10.30;4.43;;;;;;;;;;5035313;28;20038;-54
2021/07/24 07:02:13;;;;;;;13.20;4.85;;;;;;;;;;5038900;28;20084;-56
2021/07/24 07:04:40;;;;;;;10.07;4.82;;;;;;;;;;5019764;28;20093;-55
2021/07/24 07:07:07;;;;;;;11.97;4.47;;;;;;;;;;5022315;28;20042;-54
2021/07/24 07:09:34;;;;;;;9.07;4.63;;;;;;;;;;5017937;28;20631;-54
2021/07/24 07:12:01;;;;;;;9.63;4.50;;;;;;;;;;5022267;28;20144;-56
2021/07/24 07:14:28;;;;;;;14.30;5.45;;;;;;;;;;5019580;28;20548;-55
2021/07/24 07:16:56;;;;;;;10.27;4.82;;;;;;;;;;5041006;28;20042;-56
2021/07/24 07:19:23;;;;;;;11.55;5.63;;;;;;;;;;5021959;28;20038;-53
2021/07/24 07:21:50;;;;;;;13.68;5.30;;;;;;;;;;5020225;28;20064;-53
2021/07/24 07:24:17;;;;;;;13.10;4.82;;;;;;;;;;5022134;28;20053;-55
2021/07/24 07:26:43;;;;;;;9.65;4.45;;;;;;;;;;5018768;28;20049;-52
2021/07/24 07:29:10;;;;;;;8.07;4.43;;;;;;;;;;5022719;28;20042;-55
2021/07/24 07:31:37;;;;;;;10.27;4.93;;;;;;;;;;5018328;28;20045;-54
2021/07/24 07:34:03;;;;;;;12.13;4.45;;;;;;;;;;5020983;28;20041;-55
2021/07/24 07:36:30;;;;;;;8.75;4.47;;;;;;;;;;5035542;28;20042;-54
2021/07/24 07:39:04;;;;;;;8.98;4.88;;;;;;;;;;5021807;28;20045;-56
2021/07/24 07:41:30;;;;;;;8.68;4.47;;;;;;;;;;5018157;28;20033;-54
2021/07/24 07:43:59;;;;;;;11.82;4.60;;;;;;;;;;5022401;28;20077;-53
2021/07/24 07:46:26;;;;;;;8.63;4.35;;;;;;;;;;5020830;28;20052;-53
2021/07/24 07:48:53;;;;;;;9.65;4.68;;;;;;;;;;5020030;28;20057;-55
2021/07/24 07:51:19;;;;;;;10.23;4.53;;;;;;;;;;5018136;28;20041;-55
2021/07/24 07:53:45;;;;;;;8.35;4.30;;;;;;;;;;5037518;28;20041;-56
2021/07/24 07:56:14;;;;;;;11.27;4.38;;;;;;;;;;5018245;28;20058;-56
2021/07/24 07:58:40;;;;;;;8.23;4.25;;;;;;;;;;5036700;28;20060;-53
2021/07/24 08:01:10;;;;;;;10.48;5.03;;;;;;;;;;5016735;28;20061;-56
2021/07/24 08:03:37;;;;;;;12.20;4.78;;;;;;;;;;5019491;28;20061;-52
2021/07/24 08:06:03;;;;;;;11.00;4.65;;;;;;;;;;5023681;28;20046;-53
2021/07/24 08:08:30;;;;;;;9.00;4.25;;;;;;;;;;5017876;28;20034;-56
2021/07/24 08:10:57;;;;;;;15.55;5.18;;;;;;;;;;5023320;28;20041;-53
2021/07/24 08:13:26;;;;;;;13.20;4.72;;;;;;;;;;5008068;28;20045;-56
2021/07/24 08:15:53;;;;;;;10.38;4.75;;;;;;;;;;5019083;28;20049;-54
2021/07/24 08:18:20;;;;;;;13.85;4.57;;;;;;;;;;5033166;28;20041;-55
2021/07/24 08:20:46;;;;;;;13.30;4.80;;;;;;;;;;5036951;28;20041;-55
2021/07/24 08:23:14;;;;;;;10.93;4.93;;;;;;;;;;5016203;28;20045;-56
2021/07/24 08:25:40;;;;;;;13.93;5.00;;;;;;;;;;5021823;28;20042;-51
2021/07/24 08:28:08;;;;;;;11.07;4.97;;;;;;;;;;5016938;28;20040;-53
2021/07/24 08:30:35;;;;;;;9.75;4.70;;;;;;;;;;5018823;28;20053;-55
2021/07/24 08:33:02;;;;;;;10.30;4.72;;;;;;;;;;5016159;28;20053;-52
2021/07/24 08:35:28;;;;;;;12.90;5.28;;;;;;;;;;5022385;28;20046;-54
2021/07/24 08:37:55;;;;;;;10.10;4.28;;;;;;;;;;5034962;28;20046;-54
2021/07/24 08:40:21;;;;;;;9.40;4.65;;;;;;;;;;5020245;28;20048;-56
2021/07/24 08:42:48;;;;;;;12.07;4.85;;;;;;;;;;5018944;28;20062;-53
2021/07/24 08:45:16;;;;;;;10.10;4.53;;;;;;;;;;5022375;28;20052;-57
2021/07/24 08:47:44;;;;;;;10.30;4.23;;;;;;;;;;5022321;28;20052;-54
2021/07/24 08:50:11;;;;;;;;;;;;;;;;;;5019585;28;20286;-53
2021/07/24 08:52:37;;;;;;;12.18;4.30;;;;;;;;;;5021384;28;19933;-55
2021/07/24 08:55:05;;;;;;;8.85;4.60;;;;;;;;;;5020052;28;20139;-56
2021/07/24 08:57:36;;;;;;;10.75;4.15;;;;;;;;;;5022847;28;20128;-55
2021/07/24 09:00:05;;;;;;;9.43;4.40;;;;;;;;;;5033897;28;20188;-55
2021/07/24 09:02:32;;;;;;;12.48;5.75;;;;;;;;;;5037672;28;20091;-55
2021/07/24 09:05:05;;;;;;;16.92;4.53;;;;;;;;;;5033869;28;20046;-55
2021/07/24 09:07:32;;;;;;;10.52;4.70;;;;;;;;;;5012582;28;20113;-55
2021/07/24 09:09:59;;;;;;;13.00;4.63;;;;;;;;;;5013683;28;20057;-53
2021/07/24 09:12:26;;;;;;;13.80;4.93;;;;;;;;;;5003201;28;20049;-52
2021/07/24 09:14:53;;;;;;;12.10;5.40;;;;;;;;;;5005931;28;20065;-56
2021/07/24 09:17:21;;;;;;;10.32;4.75;;;;;;;;;;5004844;28;20045;-55
2021/07/24 09:19:49;;;;;;;11.30;4.38;;;;;;;;;;5001118;28;20042;-56
2021/07/24 09:22:16;;;;;;;;;;;;;;;;;;5002869;28;20079;-56
2021/07/24 09:24:44;;;;;;;8.45;4.15;;;;;;;;;;4998741;28;19948;-56
2021/07/24 09:27:22;;;;;;;10.98;4.63;;;;;;;;;;5007861;28;20054;-56
2021/07/24 09:29:49;;;;;;;10.05;5.32;;;;;;;;;;5001099;28;20030;-55
2021/07/24 09:32:15;;;;;;;10.48;4.22;;;;;;;;;;5006579;28;20045;-56
2021/07/24 09:35:00;;;;;;;14.65;4.70;;;;;;;;;;5002395;28;20053;-56
2021/07/24 09:37:28;;;;;;;9.93;4.53;;;;;;;;;;5002145;28;20042;-54
2021/07/24 09:39:56;;;;;;;10.82;4.80;;;;;;;;;;5002421;28;20050;-55
2021/07/24 09:42:31;;;;;;;12.75;4.88;;;;;;;;;;5003017;28;20053;-56
2021/07/24 09:45:07;;;;;;;12.15;5.00;;;;;;;;;;5000652;28;20050;-52
2021/07/24 09:47:34;;;;;;;17.10;4.95;;;;;;;;;;5000659;28;20070;-56
2021/07/24 09:50:11;;;;;;;16.48;4.88;;;;;;;;;;5004625;28;20182;-56
2021/07/24 09:52:44;;;;;;;10.23;5.20;;;;;;;;;;4998964;28;20050;-54
2021/07/24 09:55:20;;;;;;;10.70;5.00;;;;;;;;;;5003218;28;20041;-55
2021/07/24 09:57:48;;;;;;;11.13;4.72;;;;;;;;;;4999130;28;20042;-55
2021/07/24 10:00:22;;;;;;;11.80;5.25;;;;;;;;;;5004294;28;20042;-57
2021/07/24 10:02:48;;;;;;;16.05;5.25;;;;;;;;;;5016870;28;20058;-54
2021/07/24 10:05:15;;;;;;;11.32;4.85;;;;;;;;;;5004109;28;20045;-55
2021/07/24 10:07:43;;;;;;;9.25;5.10;;;;;;;;;;5000909;28;20066;-55
2021/07/24 10:10:10;;;;;;;15.98;5.38;;;;;;;;;;5003681;28;20046;-56
2021/07/24 10:12:38;;;;;;;10.60;5.05;;;;;;;;;;5000538;28;20046;-53
2021/07/24 10:15:05;;;;;;;;;;;;;;;;;;5004843;28;20054;-56
2021/07/24 10:17:32;;;;;;;12.88;5.05;;;;;;;;;;4999962;28;19938;-52
2021/07/24 10:19:58;;;;;;;13.00;5.57;;;;;;;;;;5005266;28;20033;-55
2021/07/24 10:22:24;;;;;;;13.90;5.95;;;;;;;;;;4999399;28;20058;-56
2021/07/24 10:24:51;;;;;;;10.02;5.10;;;;;;;;;;5005316;28;20129;-56
2021/07/24 10:27:24;;;;;;;10.45;5.10;;;;;;;;;;5001871;28;20045;-57
2021/07/24 10:30:01;;;;;;;11.88;5.00;;;;;;;;;;5005463;28;20034;-54
2021/07/24 10:32:29;;;;;;;13.18;5.30;;;;;;;;;;5001439;28;20034;-57
2021/07/24 10:34:55;;;;;;;11.80;5.85;;;;;;;;;;4998227;28;20030;-57
2021/07/24 10:37:33;;;;;;;8.95;5.05;;;;;;;;;;5000595;28;20054;-57
2021/07/24 10:40:20;;;;;;;10.73;5.65;;;;;;;;;;5003130;28;20039;-57
2021/07/24 10:42:48;;;;;;;16.50;6.43;;;;;;;;;;5015185;28;20066;-56
2021/07/24 10:45:29;;;;;;;10.63;5.30;;;;;;;;;;5003929;28;20066;-56
2021/07/24 10:48:15;;;;;;;11.10;5.22;;;;;;;;;;4999170;28;20042;-57
2021/07/24 10:50:56;;;;;;;12.48;5.93;;;;;;;;;;5001672;28;20112;-56
2021/07/24 10:53:27;;;;;;;11.65;5.32;;;;;;;;;;4999087;28;20038;-55
2021/07/24 10:55:54;;;;;;;9.00;5.32;;;;;;;;;;5004745;28;20042;-57
2021/07/24 10:58:22;;;;;;;10.82;5.78;;;;;;;;;;4999947;28;20038;-56
2021/07/24 11:00:51;;;;;;;12.27;6.18;;;;;;;;;;5003176;28;20049;-56
2021/07/24 11:03:37;;;;;;;11.55;6.15;;;;;;;;;;4998584;28;20046;-56
2021/07/24 11:06:23;;;;;;;12.35;5.97;;;;;;;;;;5003770;28;20027;-57
2021/07/24 11:09:09;;;;;;;16.75;6.03;;;;;;;;;;5016558;28;20038;-55
2021/07/24 11:11:37;;;;;;;18.35;6.82;;;;;;;;;;4999811;28;20121;-56
2021/07/24 11:14:04;;;;;;;;;;;;;;;;;;5002233;28;20030;-57
2021/07/24 11:16:46;;;;;;;18.95;6.70;;;;;;;;;;5001466;28;20049;-56
2021/07/24 11:19:20;;;;;;;21.27;6.65;;;;;;;;;;4999301;28;20049;-56
2021/07/24 11:22:05;;;;;;;17.30;6.60;;;;;;;;;;5003983;28;20060;-56
2021/07/24 11:24:31;;;;;;;12.18;6.47;;;;;;;;;;5014165;28;20058;-57
2021/07/24 11:27:01;;;;;;;15.13;7.13;;;;;;;;;;5003467;28;20042;-57
2021/07/24 11:29:27;;;;;;;17.58;6.88;;;;;;;;;;5000065;28;20054;-57
2021/07/24 11:31:54;;;;;;;16.80;6.20;;;;;;;;;;5002021;28;20038;-57
2021/07/24 11:34:21;;;;;;;16.30;6.78;;;;;;;;;;4999532;28;20053;-57
2021/07/24 11:36:49;;;;;;;14.48;6.68;;;;;;;;;;4981274;28;20046;-56
2021/07/24 11:39:15;;;;;;;14.25;7.03;;;;;;;;;;4984010;28;20039;-57
2021/07/24 11:41:42;;;;;;;14.77;6.85;;;;;;;;;;4998149;28;20058;-55
2021/07/24 11:44:09;;;;;;;12.43;6.38;;;;;;;;;;4998878;28;20133;-57
2021/07/24 11:46:36;;;;;;;16.13;7.47;;;;;;;;;;5015261;28;20053;-55
2021/07/24 11:49:03;;;;;;;15.88;6.85;;;;;;;;;;5002621;28;20041;-58
2021/07/24 11:51:29;;;;;;;12.32;5.78;;;;;;;;;;4999203;28;20057;-57
2021/07/24 11:53:56;;;;;;;15.35;6.65;;;;;;;;;;5002226;28;20096;-55
2021/07/24 11:56:25;;;;;;;15.02;6.28;;;;;;;;;;4997789;28;20038;-58
2021/07/24 11:58:52;;;;;;;13.35;7.07;;;;;;;;;;5002277;28;20073;-58
2021/07/24 12:01:21;;;;;;;12.60;6.75;;;;;;;;;;4998076;28;20050;-56
2021/07/24 12:03:48;;;;;;;11.90;6.57;;;;;;;;;;5018562;28;20042;-58
2021/07/24 12:06:15;;;;;;;13.25;6.55;;;;;;;;;;5000211;28;20125;-57
2021/07/24 12:08:43;;;;;;;14.25;6.55;;;;;;;;;;5002734;28;20153;-57
2021/07/24 12:11:12;;;;;;;13.90;7.25;;;;;;;;;;4997872;28;20136;-57
2021/07/24 12:13:38;;;;;;;13.88;6.85;;;;;;;;;;5000479;28;20082;-57
2021/07/24 12:16:05;;;;;;;12.15;5.97;;;;;;;;;;4998969;28;20061;-56
2021/07/24 12:18:38;;;;;;;14.52;6.68;;;;;;;;;;5001486;28;20064;-60
2021/07/24 12:21:08;;;;;;;16.15;6.40;;;;;;;;;;5004054;28;20038;-56
2021/07/24 12:23:35;;;;;;;16.42;6.72;;;;;;;;;;5008880;28;20050;-58
2021/07/24 12:26:11;;;;;;;15.13;6.20;;;;;;;;;;5004951;28;20128;-57
2021/07/24 12:28:37;;;;;;;20.85;6.80;;;;;;;;;;5004475;28;20045;-56
2021/07/24 12:31:20;;;;;;;15.18;6.50;;;;;;;;;;5006657;28;20058;-57
2021/07/24 12:33:48;;;;;;;11.82;5.88;;;;;;;;;;4995470;28;20058;-57
2021/07/24 12:36:16;;;;;;;14.23;6.05;;;;;;;;;;4998742;28;20050;-55
2021/07/24 12:38:44;;;;;;;14.02;7.07;;;;;;;;;;4996625;28;20058;-57
2021/07/24 12:41:10;;;;;;;15.73;6.85;;;;;;;;;;5000680;28;20057;-56
2021/07/24 12:43:39;;;;;;;18.88;6.82;;;;;;;;;;4999919;28;20046;-57
2021/07/24 12:46:13;;;;;;;19.17;7.22;;;;;;;;;;5017917;28;20145;-57
2021/07/24 12:48:43;;;;;;;12.52;6.80;;;;;;;;;;5008965;28;20056;-57
2021/07/24 12:51:11;;;;;;;13.32;7.35;;;;;;;;;;5013242;28;20066;-55
2021/07/24 12:53:38;;;;;;;22.20;7.47;;;;;;;;;;4998967;28;20119;-56
2021/07/24 12:56:05;;;;;;;16.00;7.28;;;;;;;;;;5007040;28;20073;-57
2021/07/24 12:58:32;;;;;;;15.02;7.60;;;;;;;;;;4998544;28;20105;-57
2021/07/24 13:01:07;;;;;;;14.95;7.55;;;;;;;;;;5006301;28;20041;-57
2021/07/24 13:03:34;;;;;;;16.15;6.85;;;;;;;;;;5029423;28;20052;-56
2021/07/24 13:06:00;;;;;;;16.83;7.78;;;;;;;;;;5004751;28;20038;-56
2021/07/24 13:08:29;;;;;;;17.15;8.73;;;;;;;;;;4999401;28;20034;-54
2021/07/24 13:10:55;;;;;;;;;;;;;;;;;;5004732;28;20056;-56
2021/07/24 13:13:21;;;;;;;19.38;8.85;;;;;;;;;;5001887;28;19929;-69
2021/07/24 13:15:48;;;;;;;17.00;8.70;;;;;;;;;;5020438;28;20041;-56
2021/07/24 13:18:15;;;;;;;14.07;8.18;;;;;;;;;;5021417;28;20046;-58
2021/07/24 13:20:41;;;;;;;20.10;8.98;;;;;;;;;;4998504;28;20165;-56
2021/07/24 13:23:08;;;;;;;20.70;8.88;;;;;;;;;;5001282;28;20069;-58
2021/07/24 13:25:54;;;;;;;17.65;8.45;;;;;;;;;;5005366;28;20070;-57
2021/07/24 13:28:20;;;;;;;21.50;9.20;;;;;;;;;;5009827;28;20102;-58
2021/07/24 13:30:48;;;;;;;22.85;9.95;;;;;;;;;;5013110;28;20132;-56
2021/07/24 13:33:15;;;;;;;18.45;8.88;;;;;;;;;;5003279;28;20079;-59
2021/07/24 13:35:42;;;;;;;18.23;8.40;;;;;;;;;;5021035;28;20128;-58
2021/07/24 13:38:08;;;;;;;17.70;7.90;;;;;;;;;;5004188;28;20082;-58
2021/07/24 13:40:36;;;;;;;17.95;8.57;;;;;;;;;;5006507;28;20066;-60
2021/07/24 13:43:02;;;;;;;18.98;8.85;;;;;;;;;;5011705;28;20038;-58
2021/07/24 13:45:29;;;;;;;18.13;9.30;;;;;;;;;;5000698;28;20127;-59
2021/07/24 13:47:58;;;;;;;16.33;8.13;;;;;;;;;;5004227;28;20049;-58
2021/07/24 13:50:26;;;;;;;17.52;9.05;;;;;;;;;;4999647;28;20046;-58
2021/07/24 13:52:52;;;;;;;;;;;;;;;;;;5003483;28;20050;-58
2021/07/24 13:55:18;;;;;;;16.00;8.23;;;;;;;;;;4998793;28;19922;-58
2021/07/24 13:57:48;;;;;;;16.73;8.15;;;;;;;;;;5002379;28;20086;-58
2021/07/24 14:00:14;;;;;;;16.95;8.85;;;;;;;;;;4998695;28;20062;-56
2021/07/24 14:02:41;;;;;;;20.92;8.77;;;;;;;;;;5002992;28;20120;-58
2021/07/24 14:05:08;;;;;;;20.73;9.85;;;;;;;;;;5006203;28;20042;-60
2021/07/24 14:07:35;;;;;;;20.67;9.52;;;;;;;;;;5008308;28;20078;-55
2021/07/24 14:10:04;;;;;;;19.92;8.55;;;;;;;;;;5018548;28;20124;-61
2021/07/24 14:12:30;;;;;;;17.73;8.65;;;;;;;;;;5000159;28;20090;-59
2021/07/24 14:14:58;;;;;;;19.50;9.38;;;;;;;;;;5019662;28;20100;-59
2021/07/24 14:17:26;;;;;;;20.80;9.15;;;;;;;;;;5008982;28;20046;-59
2021/07/24 14:19:53;;;;;;;;;;;;;;;;;;5004058;28;20045;-59
2021/07/24 14:22:19;;;;;;;16.90;8.23;;;;;;;;;;4997873;28;19984;-59
2021/07/24 14:24:46;;;;;;;17.05;8.90;;;;;;;;;;5015404;28;20033;-59
2021/07/24 14:27:13;;;;;;;17.95;9.55;;;;;;;;;;5019311;28;20052;-58
2021/07/24 14:29:40;;;;;;;23.07;9.93;;;;;;;;;;5022373;28;20033;-57
2021/07/24 14:32:07;;;;;;;17.27;9.38;;;;;;;;;;5035398;28;20045;-56
2021/07/24 14:34:34;;;;;;;20.67;9.48;;;;;;;;;;5021670;28;20057;-54
2021/07/24 14:37:00;;;;;;;24.63;9.85;;;;;;;;;;5018076;28;20037;-57
2021/07/24 14:39:27;;;;;;;20.73;9.45;;;;;;;;;;5039640;28;20046;-57
2021/07/24 14:41:53;;;;;;;19.00;9.68;;;;;;;;;;5019473;28;20042;-57